Time;durP1;ratioP1;P1;durP2;ratioP2;P2;SDS_P1;SDS_P2;PMS_P1;PMS_P2;Temp;Humidity;BMP_temperature;BMP_pressure;BME280_temperature;BME280_humidity;BME280_pressure;Samples;Min_cycle;Max_cycle;Signal;HPM_P1;HPM_P2
2021/08/27 00:00:38;;;;;;;6.40;1.48;;;;;;;12.37;100.00;101707.38;5171302;28;20042;-67
2021/08/27 00:03:09;;;;;;;6.05;1.80;;;;;;;12.46;100.00;101708.41;5173976;28;20073;-67
2021/08/27 00:05:41;;;;;;;9.80;1.70;;;;;;;12.41;100.00;101703.53;5172626;28;20031;-67
2021/08/27 00:08:12;;;;;;;5.53;1.33;;;;;;;12.37;100.00;101712.63;5170868;28;20076;-67
2021/08/27 00:10:43;;;;;;;5.82;1.63;;;;;;;12.39;100.00;101707.25;5169643;28;20111;-67
2021/08/27 00:13:15;;;;;;;7.70;1.98;;;;;;;12.37;100.00;101710.00;5172910;28;20109;-67
2021/08/27 00:15:46;;;;;;;5.95;1.20;;;;;;;12.35;100.00;101716.31;5173832;28;20030;-67
2021/08/27 00:18:17;;;;;;;5.63;1.77;;;;;;;12.31;100.00;101707.00;5171944;28;20117;-67
2021/08/27 00:20:48;;;;;;;6.25;1.50;;;;;;;12.28;100.00;101708.09;5173195;28;20026;-67
2021/08/27 00:23:20;;;;;;;4.57;1.27;;;;;;;12.22;100.00;101708.56;5172916;28;20026;-67
2021/08/27 00:25:51;;;;;;;7.55;1.73;;;;;;;12.21;100.00;101704.28;5172587;28;20441;-67
2021/08/27 00:28:23;;;;;;;5.97;1.42;;;;;;;12.21;100.00;101700.81;5172810;28;20026;-67
2021/08/27 00:30:57;;;;;;;4.90;1.77;;;;;;;12.21;100.00;101696.41;5172461;28;20054;-67
2021/08/27 00:33:28;;;;;;;6.03;1.77;;;;;;;12.15;100.00;101699.47;5172883;28;20160;-67
2021/08/27 00:35:59;;;;;;;6.32;1.52;;;;;;;12.15;100.00;101697.69;5171719;28;20444;-67
2021/08/27 00:38:31;;;;;;;4.60;1.05;;;;;;;12.09;100.00;101703.44;5172300;28;20023;-67
2021/08/27 00:41:02;;;;;;;3.05;1.17;;;;;;;12.09;100.00;101705.22;5172096;28;20041;-67
2021/08/27 00:43:34;;;;;;;7.05;1.33;;;;;;;12.07;100.00;101704.50;5172463;28;20027;-67
2021/08/27 00:46:05;;;;;;;4.60;1.58;;;;;;;12.05;100.00;101701.19;5172312;28;20030;-67
2021/08/27 00:48:36;;;;;;;5.00;1.58;;;;;;;12.10;100.00;101693.75;5172010;28;20162;-67
2021/08/27 00:51:08;;;;;;;6.10;1.70;;;;;;;12.08;100.00;101696.50;5172250;28;20026;-67
2021/08/27 00:53:40;;;;;;;6.28;1.70;;;;;;;12.29;100.00;101694.00;5172410;28;20050;-67
2021/08/27 00:56:13;;;;;;;5.05;1.23;;;;;;;12.19;100.00;101693.03;5172382;28;20057;-67
2021/08/27 00:58:44;;;;;;;;;;;;;;;12.55;100.00;101693.75;5171348;28;20026;-67
2021/08/27 01:01:15;;;;;;;7.57;2.40;;;;;;;12.25;100.00;101689.09;5170912;28;19973;-67
2021/08/27 01:03:47;;;;;;;6.95;1.60;;;;;;;12.29;100.00;101687.91;5172436;28;20117;-67
2021/08/27 01:06:26;;;;;;;5.15;1.52;;;;;;;12.33;100.00;101684.91;5172770;28;20030;-67
2021/08/27 01:09:01;;;;;;;7.32;1.75;;;;;;;12.30;100.00;101693.03;5170851;28;20034;-67
2021/08/27 01:11:47;;;;;;;7.35;1.60;;;;;;;12.36;100.00;101686.47;5171425;28;20027;-67
2021/08/27 01:14:40;;;;;;;5.28;1.70;;;;;;;12.35;100.00;101683.00;5172040;28;20035;-67
2021/08/27 01:17:21;;;;;;;6.43;1.85;;;;;;;12.30;100.00;101681.69;5170899;28;20118;-67
2021/08/27 01:20:06;;;;;;;10.73;1.90;;;;;;;12.33;100.00;101690.16;5171620;28;20031;-67
2021/08/27 01:23:08;;;;;;;7.13;2.10;;;;;;;12.33;100.00;101692.78;5172626;28;20026;-67
2021/08/27 01:25:47;;;;;;;6.95;2.33;;;;;;;12.21;100.00;101692.94;5171531;28;20405;-67
2021/08/27 01:28:22;;;;;;;4.38;1.92;;;;;;;12.15;100.00;101695.06;5172105;28;20043;-67
2021/08/27 01:31:15;;;;;;;7.10;2.25;;;;;;;12.27;100.00;101688.00;5170324;28;20030;-67
2021/08/27 01:34:02;;;;;;;5.88;1.60;;;;;;;12.26;100.00;101690.78;5170209;28;20149;-67
2021/08/27 01:36:36;;;;;;;7.43;2.05;;;;;;;12.08;100.00;101693.88;5172054;28;20030;-67
2021/08/27 01:39:11;;;;;;;5.68;2.05;;;;;;;12.05;100.00;101690.66;5171389;28;20055;-67
2021/08/27 01:41:47;;;;;;;4.72;1.92;;;;;;;12.00;100.00;101690.16;5169891;28;20118;-67
2021/08/27 01:44:21;;;;;;;7.00;2.20;;;;;;;11.99;100.00;101693.75;5171013;28;20389;-67
2021/08/27 01:46:56;;;;;;;5.55;2.08;;;;;;;12.00;100.00;101690.16;5170195;28;20019;-67
2021/08/27 01:49:31;;;;;;;8.05;1.90;;;;;;;11.97;100.00;101687.78;5171690;28;20029;-67
2021/08/27 01:52:06;;;;;;;6.63;1.90;;;;;;;11.92;100.00;101699.47;5170982;28;20026;-67
2021/08/27 01:54:39;;;;;;;6.03;1.70;;;;;;;11.86;100.00;101697.34;5171185;28;20019;-67
2021/08/27 01:57:11;;;;;;;5.15;2.05;;;;;;;11.91;100.00;101694.34;5171831;28;20118;-67
2021/08/27 01:59:44;;;;;;;8.00;1.98;;;;;;;11.90;100.00;101692.69;5170845;28;20077;-67
2021/08/27 02:02:17;;;;;;;7.03;1.70;;;;;;;11.86;100.00;101696.50;5169908;28;20027;-67
2021/08/27 02:04:52;;;;;;;4.43;1.60;;;;;;;11.92;100.00;101699.47;5171915;28;20053;-67
2021/08/27 02:07:23;;;;;;;9.63;1.88;;;;;;;11.84;100.00;101701.03;5170224;28;20034;-67
2021/08/27 02:09:56;;;;;;;6.95;1.88;;;;;;;11.80;100.00;101702.19;5171430;28;20034;-67
2021/08/27 02:12:28;;;;;;;3.70;1.50;;;;;;;11.82;100.00;101703.75;5172127;28;20023;-67
2021/08/27 02:15:00;;;;;;;9.13;1.95;;;;;;;11.84;100.00;101709.72;5170407;28;20065;-67
2021/08/27 02:17:31;;;;;;;5.80;1.73;;;;;;;11.84;100.00;101706.28;5169705;28;20033;-67
2021/08/27 02:20:03;;;;;;;6.05;1.67;;;;;;;11.86;100.00;101707.00;5170843;28;20664;-67
2021/08/27 02:22:35;;;;;;;8.48;1.77;;;;;;;11.79;100.00;101703.97;5171233;28;20444;-67
2021/08/27 02:25:12;;;;;;;7.78;1.77;;;;;;;11.86;100.00;101702.59;5170961;28;20278;-67
2021/08/27 02:27:45;;;;;;;6.20;2.00;;;;;;;11.86;100.00;101707.00;5170195;28;20029;-67
2021/08/27 02:30:17;;;;;;;10.63;1.60;;;;;;;11.87;100.00;101720.00;5169634;28;20029;-67
2021/08/27 02:32:50;;;;;;;6.55;1.95;;;;;;;11.88;100.00;101716.41;5169572;28;20070;-67
2021/08/27 02:35:23;;;;;;;8.93;1.83;;;;;;;11.96;100.00;101715.81;5169878;28;20469;-67
2021/08/27 02:37:55;;;;;;;5.82;1.60;;;;;;;11.91;100.00;101710.94;5170811;28;20162;-67
2021/08/27 02:40:27;;;;;;;7.50;1.90;;;;;;;12.00;100.00;101719.88;5170840;28;20043;-67
2021/08/27 02:42:58;;;;;;;8.02;1.80;;;;;;;11.94;100.00;101712.50;5171487;28;20254;-67
2021/08/27 02:45:29;;;;;;;6.18;1.50;;;;;;;11.95;100.00;101716.78;5170734;28;20023;-67
2021/08/27 02:48:01;;;;;;;10.50;1.77;;;;;;;11.91;100.00;101721.44;5170259;28;20556;-67
2021/08/27 02:50:39;;;;;;;8.48;1.88;;;;;;;11.98;100.00;101727.06;5165470;28;20124;-67
2021/08/27 02:53:22;;;;;;;5.07;1.20;;;;;;;12.00;100.00;101713.81;5173281;28;20030;-67
2021/08/27 02:56:01;;;;;;;6.03;1.63;;;;;;;11.91;100.00;101718.81;5174182;28;20130;-67
2021/08/27 02:58:35;;;;;;;5.95;2.10;;;;;;;11.95;100.00;101710.72;5175319;28;20400;-67
2021/08/27 03:01:18;;;;;;;6.57;1.45;;;;;;;11.89;100.00;101715.47;5171171;28;20045;-67
2021/08/27 03:04:01;;;;;;;9.90;1.53;;;;;;;11.98;100.00;101718.34;5174093;28;20528;-67
2021/08/27 03:06:40;;;;;;;6.47;1.58;;;;;;;11.92;100.00;101712.59;5175105;28;20274;-67
2021/08/27 03:09:13;;;;;;;10.10;1.60;;;;;;;11.95;100.00;101708.09;5174459;28;20507;-67
2021/08/27 03:11:51;;;;;;;8.50;1.80;;;;;;;12.01;100.00;101697.09;5174517;28;20083;-67
2021/08/27 03:14:30;;;;;;;3.53;1.30;;;;;;;12.02;100.00;101715.38;5174198;28;20480;-67
2021/08/27 03:17:07;;;;;;;6.50;2.03;;;;;;;11.99;100.00;101709.50;5174472;28;20385;-67
2021/08/27 03:19:54;;;;;;;4.55;1.38;;;;;;;12.04;100.00;101708.19;5174394;28;20034;-67
2021/08/27 03:22:29;;;;;;;8.68;1.70;;;;;;;12.05;100.00;101709.88;5174879;28;20507;-67
2021/08/27 03:25:08;;;;;;;6.65;1.55;;;;;;;12.17;100.00;101715.97;5173415;28;20070;-67
2021/08/27 03:27:45;;;;;;;7.55;1.77;;;;;;;12.15;100.00;101702.94;5174392;28;20492;-67
2021/08/27 03:30:22;;;;;;;5.78;1.83;;;;;;;12.14;100.00;101714.41;5171438;28;20038;-67
2021/08/27 03:33:00;;;;;;;7.35;1.90;;;;;;;12.22;100.00;101707.72;5173779;28;20027;-67
2021/08/27 03:35:33;;;;;;;7.63;1.65;;;;;;;12.24;100.00;101711.91;5174569;28;20031;-67
2021/08/27 03:38:05;;;;;;;8.77;1.83;;;;;;;12.22;100.00;101702.47;5174435;28;20035;-67
2021/08/27 03:40:37;;;;;;;4.78;1.40;;;;;;;12.25;100.00;101708.34;5173143;28;20047;-67
2021/08/27 03:43:09;;;;;;;9.90;2.00;;;;;;;12.25;100.00;101708.34;5173883;28;20444;-67
2021/08/27 03:45:41;;;;;;;10.13;1.70;;;;;;;12.26;100.00;101704.75;5173859;28;20047;-67
2021/08/27 03:48:13;;;;;;;9.07;2.08;;;;;;;12.25;100.00;101702.25;5172170;28;20400;-67
2021/08/27 03:50:47;;;;;;;5.30;1.52;;;;;;;12.23;100.00;101696.25;5173492;28;20027;-67
2021/08/27 03:53:20;;;;;;;7.32;1.80;;;;;;;12.28;100.00;101708.09;5173273;28;20109;-67
2021/08/27 03:55:53;;;;;;;7.28;1.75;;;;;;;12.29;100.00;101708.94;5173122;28;20027;-67
2021/08/27 03:58:25;;;;;;;10.95;2.17;;;;;;;12.29;100.00;101715.00;5174144;28;20431;-67
2021/08/27 04:00:57;;;;;;;12.10;2.08;;;;;;;12.28;100.00;101713.34;5172218;28;20019;-67
2021/08/27 04:03:28;;;;;;;10.15;2.13;;;;;;;12.29;100.00;101715.00;5172618;28;20022;-67
2021/08/27 04:06:04;;;;;;;10.00;2.00;;;;;;;12.33;100.00;101710.34;5171353;28;20035;-67
2021/08/27 04:08:38;;;;;;;8.48;2.25;;;;;;;12.32;100.00;101704.28;5173979;28;20197;-67
2021/08/27 04:11:13;;;;;;;9.60;2.70;;;;;;;12.30;100.00;101710.59;5173370;28;20018;-67
2021/08/27 04:13:44;;;;;;;7.53;2.25;;;;;;;12.29;100.00;101714.19;5171882;28;20027;-67
2021/08/27 04:16:16;;;;;;;8.23;1.98;;;;;;;12.28;100.00;101702.84;5172149;28;20587;-67
2021/08/27 04:18:47;;;;;;;9.40;2.42;;;;;;;12.26;100.00;101698.66;5173284;28;20026;-67
2021/08/27 04:21:18;;;;;;;6.80;1.80;;;;;;;12.35;100.00;101701.41;5172861;28;20110;-66
2021/08/27 04:23:49;;;;;;;7.82;1.75;;;;;;;12.32;100.00;101699.00;5172630;28;20547;-66
2021/08/27 04:26:21;;;;;;;9.18;2.13;;;;;;;12.31;100.00;101697.34;5173362;28;20025;-66
2021/08/27 04:28:52;;;;;;;9.10;2.30;;;;;;;12.37;100.00;101709.16;5173069;28;20023;-66
2021/08/27 04:31:23;;;;;;;8.98;2.25;;;;;;;12.44;100.00;101709.53;5173176;28;20015;-66
2021/08/27 04:33:55;;;;;;;8.07;2.53;;;;;;;12.41;100.00;101711.41;5173152;28;20303;-66
2021/08/27 04:36:26;;;;;;;9.45;2.63;;;;;;;12.48;100.00;101710.94;5172375;28;20034;-66
2021/08/27 04:38:57;;;;;;;8.13;2.00;;;;;;;12.53;100.00;101711.41;5171172;28;20045;-66
2021/08/27 04:41:29;;;;;;;5.38;1.92;;;;;;;12.56;100.00;101714.63;5173093;28;20491;-66
2021/08/27 04:44:00;;;;;;;6.45;1.83;;;;;;;12.54;100.00;101719.19;5173664;28;20109;-66
2021/08/27 04:46:31;;;;;;;6.40;1.83;;;;;;;12.62;100.00;101718.59;5171581;28;20029;-66
2021/08/27 04:49:03;;;;;;;6.63;1.52;;;;;;;12.58;100.00;101717.16;5173246;28;20469;-66
2021/08/27 04:51:34;;;;;;;8.57;2.28;;;;;;;12.63;100.00;101722.88;5172396;28;20034;-66
2021/08/27 04:54:05;;;;;;;7.45;2.00;;;;;;;12.62;100.00;101721.22;5172256;28;20404;-66
2021/08/27 04:56:36;;;;;;;7.25;2.30;;;;;;;12.62;100.00;101715.94;5172097;28;20397;-66
2021/08/27 04:59:08;;;;;;;6.13;1.83;;;;;;;12.66;100.00;101725.25;5172591;28;20392;-66
2021/08/27 05:01:39;;;;;;;5.25;1.73;;;;;;;12.65;100.00;101732.31;5171493;28;20031;-66
2021/08/27 05:04:10;;;;;;;7.50;1.85;;;;;;;12.67;100.00;101729.56;5170746;28;20073;-66
2021/08/27 05:06:41;;;;;;;9.23;2.00;;;;;;;12.67;100.00;101734.81;5170646;28;20042;-66
2021/08/27 05:09:16;;;;;;;8.80;1.98;;;;;;;12.70;100.00;101742.47;5172581;28;20031;-66
2021/08/27 05:11:47;;;;;;;10.10;2.50;;;;;;;12.70;100.00;101739.84;5172587;28;20081;-67
2021/08/27 05:14:19;;;;;;;6.90;2.20;;;;;;;12.72;100.00;101740.53;5171248;28;20480;-67
2021/08/27 05:16:50;;;;;;;8.63;2.22;;;;;;;12.75;100.00;101742.94;5169642;28;20042;-67
2021/08/27 05:19:21;;;;;;;8.55;2.20;;;;;;;12.77;100.00;101738.41;5172223;28;20161;-67
2021/08/27 05:21:53;;;;;;;9.48;2.55;;;;;;;12.81;100.00;101750.34;5170422;28;20030;-67
2021/08/27 05:24:25;;;;;;;6.43;1.75;;;;;;;12.84;100.00;101746.59;5172490;28;20026;-67
2021/08/27 05:26:57;;;;;;;7.60;2.28;;;;;;;12.86;100.00;101734.19;5172074;28;20030;-67
2021/08/27 05:29:28;;;;;;;10.52;2.65;;;;;;;12.91;100.00;101745.16;5172524;28;20456;-67
2021/08/27 05:31:59;;;;;;;4.15;2.08;;;;;;;12.95;100.00;101759.72;5169972;28;20399;-67
2021/08/27 05:34:31;;;;;;;6.15;2.15;;;;;;;12.99;100.00;101757.69;5169464;28;20149;-67
2021/08/27 05:37:03;;;;;;;4.78;1.80;;;;;;;13.05;100.00;101759.84;5170004;28;20038;-67
2021/08/27 05:39:34;;;;;;;10.63;2.88;;;;;;;13.07;100.00;101758.78;5168649;28;20043;-67
2021/08/27 05:42:06;;;;;;;6.03;1.90;;;;;;;13.17;100.00;101769.38;5170315;28;20042;-68
2021/08/27 05:44:37;;;;;;;10.18;2.58;;;;;;;13.23;100.00;101765.41;5170923;28;20101;-67
2021/08/27 05:47:09;;;;;;;5.68;1.95;;;;;;;13.26;100.00;101758.16;5170879;28;20032;-68
2021/08/27 05:49:40;;;;;;;8.18;2.28;;;;;;;13.32;100.00;101768.16;5170303;28;20101;-68
2021/08/27 05:52:11;;;;;;;6.95;1.80;;;;;;;13.35;100.00;101767.06;5170025;28;20019;-68
2021/08/27 05:54:43;;;;;;;6.57;1.58;;;;;;;13.38;100.00;101761.56;5170253;28;20049;-68
2021/08/27 05:57:14;;;;;;;5.93;1.83;;;;;;;13.45;100.00;101761.88;5169276;28;20027;-68
2021/08/27 05:59:45;;;;;;;4.97;1.40;;;;;;;13.49;100.00;101771.22;5170494;28;20023;-68
2021/08/27 06:02:18;;;;;;;4.22;1.38;;;;;;;13.57;100.00;101761.72;5169328;28;20408;-68
2021/08/27 06:04:49;;;;;;;8.10;1.90;;;;;;;13.62;100.00;101767.44;5168562;28;20030;-68
2021/08/27 06:07:20;;;;;;;5.38;1.70;;;;;;;13.61;100.00;101760.50;5170003;28;20069;-68
2021/08/27 06:09:52;;;;;;;7.10;1.63;;;;;;;13.62;100.00;101759.53;5170239;28;20235;-68
2021/08/27 06:12:23;;;;;;;8.10;1.70;;;;;;;13.63;100.00;101765.63;5171105;28;20118;-68
2021/08/27 06:14:55;;;;;;;5.32;1.45;;;;;;;13.68;100.00;101768.72;5169733;28;20034;-68
2021/08/27 06:17:26;;;;;;;4.47;1.52;;;;;;;13.69;100.00;101762.50;5170324;28;20023;-68
2021/08/27 06:19:57;;;;;;;5.53;1.60;;;;;;;13.73;100.00;101768.34;5167631;28;20038;-68
2021/08/27 06:22:29;;;;;;;5.95;1.90;;;;;;;13.78;100.00;101766.97;5167253;28;20027;-68
2021/08/27 06:25:00;;;;;;;4.80;1.63;;;;;;;13.83;100.00;101770.09;5168389;28;20034;-69
2021/08/27 06:27:32;;;;;;;7.40;1.70;;;;;;;13.89;100.00;101771.34;5172889;28;20051;-68
2021/08/27 06:30:05;;;;;;;5.82;2.03;;;;;;;13.96;100.00;101759.34;5175545;28;20348;-68
2021/08/27 06:32:37;;;;;;;6.63;2.03;;;;;;;14.03;100.00;101757.03;5167323;28;20081;-68
2021/08/27 06:35:09;;;;;;;5.30;2.00;;;;;;;14.13;100.00;101757.91;5172703;28;20105;-68
2021/08/27 06:46:43;;;;;;;7.63;2.50;;;;;;;14.49;100.00;101756.56;6107512;23;20067;-68
2021/08/27 06:49:14;;;;;;;4.55;1.75;;;;;;;14.50;100.00;101763.50;5169438;28;20178;-68
2021/08/27 06:51:47;;;;;;;6.45;2.03;;;;;;;14.54;100.00;101767.53;5169670;28;20022;-68
2021/08/27 06:54:22;;;;;;;6.10;2.03;;;;;;;14.59;100.00;101777.72;5163094;28;20520;-68
2021/08/27 06:56:53;;;;;;;7.45;1.70;;;;;;;14.46;100.00;101742.78;5171628;28;20031;-68
2021/08/27 06:59:24;;;;;;;7.60;2.00;;;;;;;14.71;100.00;101768.72;5172164;28;20023;-68
2021/08/27 07:01:55;;;;;;;6.18;1.92;;;;;;;14.76;100.00;101763.88;5160536;28;20023;-68
2021/08/27 07:04:27;;;;;;;6.10;2.00;;;;;;;14.79;100.00;101768.03;5171580;28;20023;-68
2021/08/27 07:07:02;;;;;;;3.88;1.48;;;;;;;14.85;100.00;101762.25;5173461;28;20034;-68
2021/08/27 07:09:34;;;;;;;5.95;1.85;;;;;;;14.95;100.00;101767.53;5173472;28;20031;-69
2021/08/27 07:12:13;;;;;;;6.75;2.03;;;;;;;15.01;100.00;101770.47;5173496;28;20050;-68
2021/08/27 07:14:49;;;;;;;4.40;1.70;;;;;;;15.14;100.00;101774.63;5173257;28;20049;-68
2021/08/27 07:17:20;;;;;;;6.13;2.00;;;;;;;15.21;100.00;101781.88;5173618;28;20035;-70
2021/08/27 07:19:52;;;;;;;4.40;1.42;;;;;;;15.35;100.00;101774.53;5168837;28;20481;-68
2021/08/27 07:22:23;;;;;;;9.35;1.95;;;;;;;15.42;100.00;101768.56;5170596;28;20042;-69
2021/08/27 07:24:55;;;;;;;5.07;1.65;;;;;;;15.50;100.00;101770.50;5171735;28;20074;-69
2021/08/27 07:27:26;;;;;;;6.55;1.40;;;;;;;15.55;100.00;101773.53;5169037;28;20055;-70
2021/08/27 07:29:58;;;;;;;4.80;1.25;;;;;;;15.63;100.00;101784.25;5170013;28;20029;-68
2021/08/27 07:32:29;;;;;;;8.77;1.60;;;;;;;15.68;100.00;101774.13;5175580;28;20038;-70
2021/08/27 07:35:01;;;;;;;5.75;1.58;;;;;;;15.77;100.00;101777.72;5172113;28;20026;-71
2021/08/27 07:37:32;;;;;;;6.45;1.20;;;;;;;15.80;100.00;101780.94;5169501;28;20034;-68
2021/08/27 07:40:09;;;;;;;3.55;1.25;;;;;;;15.97;100.00;101773.25;5171429;28;21376;-69
2021/08/27 07:42:41;;;;;;;6.40;1.38;;;;;;;16.00;100.00;101773.78;5171388;28;20377;-69
2021/08/27 07:45:13;;;;;;;5.70;1.50;;;;;;;16.15;100.00;101778.63;5172365;28;20472;-69
2021/08/27 07:47:45;;;;;;;5.05;1.50;;;;;;;16.22;100.00;101777.91;5171607;28;20416;-69
2021/08/27 07:50:16;;;;;;;7.07;1.83;;;;;;;16.26;100.00;101778.44;5174423;28;20027;-70
2021/08/27 07:52:48;;;;;;;5.07;1.58;;;;;;;16.34;100.00;101775.91;5171615;28;20035;-69
2021/08/27 07:55:22;;;;;;;4.97;1.38;;;;;;;16.41;100.00;101776.19;5172286;28;20085;-69
2021/08/27 07:57:53;;;;;;;4.05;1.40;;;;;;;16.50;100.00;101786.69;5172025;28;20022;-69
2021/08/27 08:00:24;;;;;;;5.88;1.38;;;;;;;16.61;100.00;101787.50;5173202;28;20030;-69
2021/08/27 08:02:55;;;;;;;7.85;1.80;;;;;;;16.61;100.00;101774.28;5170266;28;20085;-68
2021/08/27 08:05:27;;;;;;;5.75;1.83;;;;;;;16.76;100.00;101786.06;5172574;28;20117;-68
2021/08/27 08:07:58;;;;;;;7.70;2.00;;;;;;;16.84;100.00;101783.50;5171117;28;20030;-69
2021/08/27 08:10:29;;;;;;;7.78;1.50;;;;;;;16.95;100.00;101793.06;5172114;28;20027;-68
2021/08/27 08:13:01;;;;;;;4.25;1.58;;;;;;;17.05;100.00;101785.91;5172784;28;20027;-71
2021/08/27 08:15:32;;;;;;;7.10;1.35;;;;;;;17.19;100.00;101780.06;5172494;28;20503;-69
2021/08/27 08:18:04;;;;;;;15.15;1.98;;;;;;;17.27;100.00;101788.13;5172425;28;20114;-69
2021/08/27 08:20:35;;;;;;;8.80;1.65;;;;;;;17.39;100.00;101782.59;5170930;28;20081;-70
2021/08/27 08:23:06;;;;;;;6.70;1.65;;;;;;;17.43;100.00;101773.34;5173008;28;20652;-69
2021/08/27 08:25:38;;;;;;;4.55;1.65;;;;;;;17.47;100.00;101780.00;5169548;28;20025;-69
2021/08/27 08:28:11;;;;;;;5.32;1.75;;;;;;;17.39;100.00;101782.59;5160534;28;20089;-69
2021/08/27 08:30:43;;;;;;;4.03;1.20;;;;;;;17.29;100.00;101787.13;5168674;28;20019;-69
2021/08/27 08:33:14;;;;;;;6.55;1.38;;;;;;;17.31;100.00;101793.09;5169298;28;20492;-70
2021/08/27 08:35:46;;;;;;;5.43;1.17;;;;;;;17.36;100.00;101785.53;5158100;28;20023;-69
2021/08/27 08:38:18;;;;;;;5.82;1.35;;;;;;;17.42;100.00;101798.16;5170761;28;20031;-71
2021/08/27 08:40:49;;;;;;;5.68;1.67;;;;;;;17.57;100.00;101793.97;5170719;28;20027;-69
2021/08/27 08:43:21;;;;;;;5.72;1.63;;;;;;;17.66;100.00;101798.38;5170908;28;20065;-68
2021/08/27 08:45:53;;;;;;;6.28;1.40;;;;;;;17.77;100.00;101799.13;5168677;28;20547;-70
2021/08/27 08:48:26;;;;;;;6.63;1.75;;;;;;;17.94;100.00;101791.16;5170244;28;20394;-70
2021/08/27 08:50:59;;;;;;;5.10;1.48;;;;;;;17.90;100.00;101792.47;5165271;28;20029;-68
2021/08/27 08:53:34;;;;;;;4.43;1.27;;;;;;;17.91;100.00;101794.13;5168640;28;20038;-70
2021/08/27 08:56:09;;;;;;;6.78;1.70;;;;;;;18.01;100.00;101785.25;5170308;28;20035;-69
2021/08/27 08:58:40;;;;;;;7.20;1.73;;;;;;;17.98;100.00;101792.50;5170148;28;20077;-69
2021/08/27 09:01:17;;;;;;;5.72;1.88;;;;;;;18.12;100.00;101790.28;5165930;28;20026;-71
2021/08/27 09:03:48;;;;;;;5.68;1.20;;;;;;;18.10;100.00;101792.25;5164018;28;20058;-69
2021/08/27 09:06:20;;;;;;;7.32;1.83;;;;;;;18.11;100.00;101792.13;5169877;28;20109;-69
2021/08/27 09:08:52;;;;;;;3.87;1.30;;;;;;;18.19;100.00;101792.16;5168257;28;20038;-69
2021/08/27 09:11:24;;;;;;;4.33;1.60;;;;;;;18.24;100.00;101805.78;5157735;28;20083;-69
2021/08/27 09:13:59;;;;;;;5.10;1.38;;;;;;;18.26;100.00;101805.63;5171426;28;20274;-69
2021/08/27 09:16:33;;;;;;;5.20;1.30;;;;;;;18.22;100.00;101802.47;5172396;28;20080;-68
2021/08/27 09:19:04;;;;;;;4.03;1.40;;;;;;;18.17;100.00;101801.25;5170333;28;20035;-69
2021/08/27 09:21:45;;;;;;;4.72;1.45;;;;;;;18.28;100.00;101800.16;5171187;28;20073;-69
2021/08/27 09:24:25;;;;;;;5.10;1.20;;;;;;;18.26;100.00;101802.13;5170461;28;20041;-69
2021/08/27 09:26:58;;;;;;;3.45;1.20;;;;;;;18.36;100.00;101802.84;5167216;28;20038;-70
2021/08/27 09:29:43;;;;;;;5.13;1.60;;;;;;;18.46;100.00;101796.44;5170439;28;20121;-68
2021/08/27 09:32:21;;;;;;;4.82;1.40;;;;;;;18.44;100.00;101800.25;5170049;28;20041;-69
2021/08/27 09:35:15;;;;;;;6.75;1.85;;;;;;;18.53;100.00;101791.34;5170459;28;20039;-69
2021/08/27 09:37:50;;;;;;;5.72;1.40;;;;;;;18.46;96.93;101808.88;5170048;28;20019;-68
2021/08/27 09:40:27;;;;;;;4.13;1.10;;;;;;;18.51;95.08;101803.09;5169878;28;20435;-69
2021/08/27 09:42:59;;;;;;;4.70;1.30;;;;;;;18.44;93.45;101805.53;5168254;28;20070;-69
2021/08/27 09:45:44;;;;;;;9.20;1.58;;;;;;;18.51;95.27;101800.44;5169797;28;20507;-68
2021/08/27 09:48:15;;;;;;;4.10;1.33;;;;;;;18.41;93.65;101797.91;5169875;28;20042;-69
2021/08/27 09:50:49;;;;;;;5.72;1.52;;;;;;;18.43;94.50;101796.75;5170109;28;20026;-69
2021/08/27 09:53:20;;;;;;;4.32;1.42;;;;;;;18.37;93.40;101793.91;5170687;28;20034;-69
2021/08/27 09:55:59;;;;;;;7.55;1.67;;;;;;;18.55;95.73;101807.91;5169890;28;20023;-69
2021/08/27 09:58:50;;;;;;;7.78;1.90;;;;;;;18.53;96.90;101811.75;5171644;28;20023;-69
2021/08/27 10:01:21;;;;;;;6.40;1.50;;;;;;;17.93;100.00;101829.28;5171240;28;20029;-68
2021/08/27 10:04:04;;;;;;;6.32;1.60;;;;;;;17.88;100.00;101833.34;5170912;28;20031;-69
2021/08/27 10:06:35;;;;;;;4.65;1.23;;;;;;;17.40;100.00;101832.75;5172569;28;20034;-69
2021/08/27 10:09:07;;;;;;;5.30;1.38;;;;;;;17.43;100.00;101821.88;5174562;28;20015;-68
2021/08/27 10:11:39;;;;;;;3.17;1.00;;;;;;;17.46;100.00;101815.41;5173052;28;20029;-69
2021/08/27 10:14:11;;;;;;;4.75;1.15;;;;;;;17.46;100.00;101812.75;5171412;28;20147;-69
2021/08/27 10:16:44;;;;;;;4.18;1.08;;;;;;;17.61;100.00;101803.28;5173160;28;20163;-68
2021/08/27 10:19:16;;;;;;;4.18;1.00;;;;;;;17.75;100.00;101802.78;5173643;28;20050;-68
2021/08/27 10:21:51;;;;;;;4.93;1.42;;;;;;;17.86;100.00;101792.94;5173782;28;20584;-68
2021/08/27 10:24:22;;;;;;;7.65;1.02;;;;;;;18.04;100.00;101787.59;5175439;28;20113;-68
2021/08/27 10:26:53;;;;;;;4.97;1.42;;;;;;;18.14;100.00;101777.69;5174735;28;20138;-68
2021/08/27 10:29:26;;;;;;;4.03;1.30;;;;;;;18.33;100.00;101773.97;5174373;28;20034;-68
2021/08/27 10:31:57;;;;;;;4.28;1.10;;;;;;;18.49;100.00;101776.72;5174391;28;20077;-68
2021/08/27 10:34:39;;;;;;;4.68;1.05;;;;;;;18.60;100.00;101778.25;5175014;28;20031;-68
2021/08/27 10:37:42;;;;;;;4.28;0.98;;;;;;;18.67;100.00;101773.97;5174997;28;20034;-68
2021/08/27 10:40:22;;;;;;;2.75;1.00;;;;;;;18.64;98.78;101775.13;5173851;28;20027;-68
2021/08/27 10:42:58;;;;;;;4.88;1.50;;;;;;;18.64;100.00;101769.00;5174622;28;20030;-68
2021/08/27 10:45:31;;;;;;;2.72;1.15;;;;;;;18.78;98.04;101765.72;5174690;28;20117;-68
2021/08/27 10:48:12;;;;;;;8.50;2.13;;;;;;;18.98;96.42;101754.81;5173122;28;20051;-68
2021/08/27 10:50:46;;;;;;;4.43;1.40;;;;;;;19.18;96.25;101759.69;5174318;28;20098;-68
2021/08/27 10:53:35;;;;;;;4.10;1.13;;;;;;;19.61;98.40;101757.69;5174986;28;20034;-68
2021/08/27 10:56:45;;;;;;;4.32;1.38;;;;;;;19.92;98.01;101754.38;5170671;28;20041;-68
2021/08/27 10:59:19;;;;;;;3.65;1.58;;;;;;;20.12;96.64;101760.97;5174247;28;20480;-68
2021/08/27 11:01:56;;;;;;;5.55;1.58;;;;;;;20.11;92.95;101759.31;5172678;28;20130;-68
2021/08/27 11:04:30;;;;;;;4.68;1.35;;;;;;;19.76;89.79;101768.53;5171915;28;20035;-68
2021/08/27 11:07:06;;;;;;;3.67;1.40;;;;;;;19.71;90.89;101759.41;5172432;28;20019;-68
2021/08/27 11:09:37;;;;;;;5.00;1.33;;;;;;;19.63;93.45;101760.25;5171069;28;20397;-68
2021/08/27 11:12:21;;;;;;;3.87;1.80;;;;;;;19.75;93.47;101748.25;5173094;28;20247;-68
2021/08/27 11:14:54;;;;;;;4.63;1.40;;;;;;;19.60;92.47;101766.69;5172645;28;20015;-68
2021/08/27 11:17:27;;;;;;;;;;;;;;;19.95;93.39;101747.88;5174559;28;20027;-68
2021/08/27 11:19:59;;;;;;;2.85;1.15;;;;;;;19.98;94.03;101744.91;5172352;28;19968;-68
2021/08/27 11:22:32;;;;;;;3.83;1.60;;;;;;;20.12;93.33;101744.19;5163552;28;20055;-68
2021/08/27 11:25:03;;;;;;;5.20;1.48;;;;;;;20.14;93.02;101742.19;5172599;28;20584;-68
2021/08/27 11:27:35;;;;;;;4.53;1.37;;;;;;;20.32;92.06;101739.31;5171682;28;20046;-68
2021/08/27 11:30:29;;;;;;;5.50;1.70;;;;;;;20.50;92.67;101737.25;5171570;28;20053;-69
2021/08/27 11:33:01;;;;;;;4.25;1.83;;;;;;;20.35;91.56;101736.31;5172803;28;20022;-68
2021/08/27 11:35:45;;;;;;;4.17;1.67;;;;;;;20.42;91.64;101731.94;5173589;28;20025;-69
2021/08/27 11:38:18;;;;;;;12.00;1.98;;;;;;;20.22;90.29;101733.34;5173326;28;20294;-69
2021/08/27 11:40:49;;;;;;;4.45;1.50;;;;;;;20.03;91.75;101735.38;5171942;28;20041;-69
2021/08/27 11:43:35;;;;;;;5.90;1.87;;;;;;;19.95;95.42;101739.91;5171081;28;20030;-68
2021/08/27 11:46:14;;;;;;;6.13;1.83;;;;;;;19.72;95.68;101750.41;5169774;28;20027;-69
2021/08/27 11:48:52;;;;;;;7.05;1.75;;;;;;;19.35;97.56;101752.53;5172247;28;20497;-69
2021/08/27 11:51:29;;;;;;;5.88;1.60;;;;;;;19.25;98.03;101748.41;5170202;28;20408;-69
2021/08/27 11:54:20;;;;;;;4.72;1.63;;;;;;;19.33;98.30;101762.53;5169069;28;20018;-69
2021/08/27 11:56:54;;;;;;;5.47;1.90;;;;;;;18.80;100.00;101758.44;5187030;28;20026;-68
2021/08/27 11:59:27;;;;;;;6.53;2.00;;;;;;;18.59;100.00;101772.09;5171770;28;20041;-68